createdAt,value
2022-11-12T00:00:05.534Z,23.5500
2022-11-12T00:00:16.734Z,23.5500
2022-11-12T00:00:27.843Z,23.5500
2022-11-12T00:00:38.903Z,23.5500
2022-11-12T00:00:50.013Z,23.5500
2022-11-12T00:01:01.213Z,23.5500
2022-11-12T00:01:12.253Z,23.5500
2022-11-12T00:01:23.343Z,23.5600
2022-11-12T00:01:34.562Z,23.5600
2022-11-12T00:01:45.721Z,23.5600
2022-11-12T00:01:56.944Z,23.5500
2022-11-12T00:02:08.124Z,23.5500
2022-11-12T00:02:19.348Z,23.5500
2022-11-12T00:02:30.493Z,23.5500
2022-11-12T00:02:41.693Z,23.5400
2022-11-12T00:02:52.893Z,23.5400
2022-11-12T00:03:03.932Z,23.5400
2022-11-12T00:03:14.973Z,23.5600
2022-11-12T00:03:26.289Z,23.5800
2022-11-12T00:03:37.375Z,23.5900
2022-11-12T00:03:48.574Z,23.6100
2022-11-12T00:03:59.778Z,23.6200
2022-11-12T00:04:10.974Z,23.6200
2022-11-12T00:04:22.173Z,23.6200
2022-11-12T00:04:33.374Z,23.6100
2022-11-12T00:04:44.574Z,23.6000
2022-11-12T00:04:55.774Z,23.5900
2022-11-12T00:05:06.981Z,23.5900
2022-11-12T00:05:18.023Z,23.5900
2022-11-12T00:05:29.095Z,23.5800
2022-11-12T00:05:40.254Z,23.5800
2022-11-12T00:05:51.460Z,23.5700
2022-11-12T00:06:02.657Z,23.5700
2022-11-12T00:06:13.853Z,23.5700
2022-11-12T00:06:24.924Z,23.5600
2022-11-12T00:06:36.081Z,23.5600
2022-11-12T00:06:47.329Z,23.5600
2022-11-12T00:06:58.471Z,23.5600
2022-11-12T00:07:09.578Z,23.5600
2022-11-12T00:07:20.733Z,23.5600
2022-11-12T00:07:31.936Z,23.5600
2022-11-12T00:07:43.133Z,23.5500
2022-11-12T00:07:54.340Z,23.5600
2022-11-12T00:08:05.533Z,23.5600
2022-11-12T00:08:16.735Z,23.5700
2022-11-12T00:08:28.248Z,23.5700
2022-11-12T00:08:39.505Z,23.5700
2022-11-12T00:08:50.654Z,23.5700
2022-11-12T00:09:01.854Z,23.5700
2022-11-12T00:09:13.052Z,23.5800
2022-11-12T00:09:24.261Z,23.5700
2022-11-12T00:09:35.455Z,23.5700
2022-11-12T00:09:46.654Z,23.5600
2022-11-12T00:09:57.864Z,23.5600
2022-11-12T00:10:09.055Z,23.5500
2022-11-12T00:10:20.253Z,23.5500
2022-11-12T00:10:31.452Z,23.5400
2022-11-12T00:10:42.654Z,23.5400
2022-11-12T00:10:53.900Z,23.5400
2022-11-12T00:11:05.053Z,23.5400
2022-11-12T00:11:16.255Z,23.5400
2022-11-12T00:11:27.323Z,23.5500
2022-11-12T00:11:38.384Z,23.5500
2022-11-12T00:11:49.532Z,23.5500
2022-11-12T00:12:00.743Z,23.5500
2022-11-12T00:12:11.933Z,23.5500
2022-11-12T00:12:23.133Z,23.5500
2022-11-12T00:12:34.184Z,23.5500
2022-11-12T00:12:45.233Z,23.5600
2022-11-12T00:12:56.414Z,23.5700
2022-11-12T00:13:07.613Z,23.5800
2022-11-12T00:13:18.815Z,23.5900
2022-11-12T00:13:29.873Z,23.5900
2022-11-12T00:13:40.943Z,23.5900
2022-11-12T00:13:52.094Z,23.5900
2022-11-12T00:14:03.294Z,23.5900
2022-11-12T00:14:14.513Z,23.5900
2022-11-12T00:14:25.695Z,23.5900
2022-11-12T00:14:36.902Z,23.5900
2022-11-12T00:14:48.094Z,23.6000
2022-11-12T00:14:59.294Z,23.6100
2022-11-12T00:15:10.494Z,23.6200
2022-11-12T00:15:21.705Z,23.6300
2022-11-12T00:15:32.897Z,23.6400
2022-11-12T00:15:44.093Z,23.6400
2022-11-12T00:15:55.297Z,23.6600
2022-11-12T00:16:06.493Z,23.6700
2022-11-12T00:16:17.694Z,23.6800
2022-11-12T00:16:28.743Z,23.6800
2022-11-12T00:16:39.783Z,23.6800
2022-11-12T00:16:50.974Z,23.6800
2022-11-12T00:17:02.173Z,23.6700
2022-11-12T00:17:13.374Z,23.6500
2022-11-12T00:17:24.573Z,23.6500
2022-11-12T00:17:35.773Z,23.6400
2022-11-12T00:17:46.977Z,23.6200
2022-11-12T00:17:58.173Z,23.6100
2022-11-12T00:18:09.373Z,23.6100
2022-11-12T00:18:20.574Z,23.6100
2022-11-12T00:18:31.735Z,23.6000
2022-11-12T00:18:42.758Z,23.6000
2022-11-12T00:18:53.856Z,23.6100
2022-11-12T00:19:05.053Z,23.6000
2022-11-12T00:19:16.263Z,23.6000
2022-11-12T00:19:27.456Z,23.5900
2022-11-12T00:19:38.654Z,23.5800
2022-11-12T00:19:49.854Z,23.5800
2022-11-12T00:20:01.053Z,23.5700
2022-11-12T00:20:12.269Z,23.5700
2022-11-12T00:20:23.454Z,23.5700
2022-11-12T00:20:34.658Z,23.5700
2022-11-12T00:20:45.703Z,23.5800
2022-11-12T00:20:56.734Z,23.5800
2022-11-12T00:21:07.936Z,23.5700
2022-11-12T00:21:19.136Z,23.5700
2022-11-12T00:21:30.376Z,23.5600
2022-11-12T00:21:41.534Z,23.5500
2022-11-12T00:21:52.753Z,23.5400
2022-11-12T00:22:03.935Z,23.5400
2022-11-12T00:22:15.134Z,23.5300
2022-11-12T00:22:26.338Z,23.5200
2022-11-12T00:22:37.533Z,23.5200
2022-11-12T00:22:48.733Z,23.5300
2022-11-12T00:22:59.932Z,23.5300
2022-11-12T00:23:11.133Z,23.5300
2022-11-12T00:23:22.343Z,23.5300
2022-11-12T00:23:33.536Z,23.5300
2022-11-12T00:23:44.735Z,23.5300
2022-11-12T00:23:55.944Z,23.5400
2022-11-12T00:24:07.134Z,23.5300
2022-11-12T00:24:18.336Z,23.5300
2022-11-12T00:24:29.373Z,23.5300
2022-11-12T00:24:40.422Z,23.5300
2022-11-12T00:24:51.613Z,23.5200
2022-11-12T00:25:02.813Z,23.5100
2022-11-12T00:25:14.013Z,23.5100
2022-11-12T00:25:25.213Z,23.5100
2022-11-12T00:25:36.413Z,23.5100
2022-11-12T00:25:47.613Z,23.5200
2022-11-12T00:25:58.814Z,23.5300
2022-11-12T00:26:10.015Z,23.5300
2022-11-12T00:26:21.213Z,23.5500
2022-11-12T00:26:32.274Z,23.5600
2022-11-12T00:26:43.334Z,23.5600
2022-11-12T00:26:54.494Z,23.5700
2022-11-12T00:27:05.692Z,23.5700
2022-11-12T00:27:16.894Z,23.5600
2022-11-12T00:27:28.095Z,23.5600
2022-11-12T00:27:39.294Z,23.5500
2022-11-12T00:27:50.375Z,23.5500
2022-11-12T00:28:01.444Z,23.5500
2022-11-12T00:28:12.583Z,23.5400
2022-11-12T00:28:24.191Z,23.5400
2022-11-12T00:28:38.147Z,23.5400
2022-11-12T00:28:49.738Z,23.5500
2022-11-12T00:29:00.894Z,23.5400
2022-11-12T00:29:12.095Z,23.5500
2022-11-12T00:29:23.147Z,23.5600
2022-11-12T00:29:34.193Z,23.5600
2022-11-12T00:29:45.380Z,23.5700
2022-11-12T00:29:56.574Z,23.5700
2022-11-12T00:30:07.776Z,23.5700
2022-11-12T00:30:18.974Z,23.5600
2022-11-12T00:30:30.174Z,23.5600
2022-11-12T00:30:41.409Z,23.5600
2022-11-12T00:30:52.575Z,23.5600
2022-11-12T00:31:03.784Z,23.5600
2022-11-12T00:31:14.972Z,23.5600
2022-11-12T00:31:26.014Z,23.5500
2022-11-12T00:31:37.124Z,23.5600
2022-11-12T00:31:48.255Z,23.5600
2022-11-12T00:31:59.458Z,23.5700
2022-11-12T00:32:10.655Z,23.5800
2022-11-12T00:32:21.854Z,23.5800
2022-11-12T00:32:33.056Z,23.5800
2022-11-12T00:32:44.253Z,23.5800
2022-11-12T00:32:55.454Z,23.5900
2022-11-12T00:33:06.653Z,23.5900
2022-11-12T00:33:17.725Z,23.5900
2022-11-12T00:33:28.774Z,23.5900
2022-11-12T00:33:40.049Z,23.5900
2022-11-12T00:33:51.136Z,23.5800
2022-11-12T00:34:02.184Z,23.5700
2022-11-12T00:34:13.247Z,23.5600
2022-11-12T00:34:24.415Z,23.5400
2022-11-12T00:34:35.464Z,23.5300
2022-11-12T00:34:46.547Z,23.5200
2022-11-12T00:35:01.315Z,23.5200
2022-11-12T00:35:14.661Z,23.5100
2022-11-12T00:35:25.861Z,23.4800
2022-11-12T00:35:36.916Z,23.4800
2022-11-12T00:35:47.944Z,23.4900
2022-11-12T00:35:59.135Z,23.4900
2022-11-12T00:36:10.185Z,23.4900
2022-11-12T00:36:21.253Z,23.4900
2022-11-12T00:36:32.420Z,23.4800
2022-11-12T00:36:43.643Z,23.4800
2022-11-12T00:36:54.814Z,23.4800
2022-11-12T00:37:06.015Z,23.4700
2022-11-12T00:37:17.227Z,23.4800
2022-11-12T00:37:28.413Z,23.4800
2022-11-12T00:37:39.614Z,23.4800
2022-11-12T00:37:50.815Z,23.4800
2022-11-12T00:38:02.015Z,23.4900
2022-11-12T00:38:13.222Z,23.5000
2022-11-12T00:38:25.369Z,23.5100
2022-11-12T00:38:36.620Z,23.5100
2022-11-12T00:38:47.774Z,23.5200
2022-11-12T00:38:58.974Z,23.5200
2022-11-12T00:39:10.016Z,23.5300
2022-11-12T00:39:21.094Z,23.5300
2022-11-12T00:39:32.257Z,23.5200
2022-11-12T00:39:43.453Z,23.5200
2022-11-12T00:39:54.653Z,23.5100
2022-11-12T00:40:05.853Z,23.5100
2022-11-12T00:40:17.055Z,23.5000
2022-11-12T00:40:28.260Z,23.5000
2022-11-12T00:40:39.336Z,23.4900
2022-11-12T00:40:50.383Z,23.4900
2022-11-12T00:41:01.544Z,23.4800
2022-11-12T00:41:12.735Z,23.4900
2022-11-12T00:41:23.940Z,23.5000
2022-11-12T00:41:35.137Z,23.5100
2022-11-12T00:41:46.370Z,23.5200
2022-11-12T00:41:57.533Z,23.5300
2022-11-12T00:42:08.733Z,23.5300
2022-11-12T00:42:19.944Z,23.5300
2022-11-12T00:42:31.133Z,23.5200
2022-11-12T00:42:42.183Z,23.5200
2022-11-12T00:42:53.230Z,23.5100
2022-11-12T00:43:04.284Z,23.5100
2022-11-12T00:43:15.347Z,23.5100
2022-11-12T00:43:26.383Z,23.5200
2022-11-12T00:43:37.444Z,23.5100
2022-11-12T00:43:48.575Z,23.5100
2022-11-12T00:43:59.773Z,23.5200
2022-11-12T00:44:10.974Z,23.5300
2022-11-12T00:44:22.175Z,23.5300
2022-11-12T00:44:33.375Z,23.5300
2022-11-12T00:44:44.573Z,23.5300
2022-11-12T00:44:55.782Z,23.5200
2022-11-12T00:45:06.974Z,23.5100
2022-11-12T00:45:18.174Z,23.5100
2022-11-12T00:45:29.244Z,23.5100
2022-11-12T00:45:40.304Z,23.5100
2022-11-12T00:45:51.454Z,23.5100
2022-11-12T00:46:02.662Z,23.5200
2022-11-12T00:46:13.860Z,23.5200
2022-11-12T00:46:25.054Z,23.5300
2022-11-12T00:46:36.264Z,23.5300
2022-11-12T00:46:47.485Z,23.5400
2022-11-12T00:46:58.662Z,23.5500
2022-11-12T00:47:09.857Z,23.5600
2022-11-12T00:47:21.055Z,23.5600
2022-11-12T00:47:32.124Z,23.5600
2022-11-12T00:47:43.185Z,23.5600
2022-11-12T00:47:54.334Z,23.5600
2022-11-12T00:48:05.534Z,23.5700
2022-11-12T00:48:16.734Z,23.5700
2022-11-12T00:48:28.425Z,23.5800
2022-11-12T00:48:39.815Z,23.5700
2022-11-12T00:48:51.092Z,23.5700
2022-11-12T00:49:02.184Z,23.5600
2022-11-12T00:49:13.374Z,23.5600
2022-11-12T00:49:24.574Z,23.5600
2022-11-12T00:49:35.773Z,23.5700
2022-11-12T00:49:46.973Z,23.5800
2022-11-12T00:49:58.183Z,23.5800
2022-11-12T00:50:09.373Z,23.5700
2022-11-12T00:50:20.575Z,23.5600
2022-11-12T00:50:31.774Z,23.5500
2022-11-12T00:50:42.974Z,23.5400
2022-11-12T00:50:54.016Z,23.5300
2022-11-12T00:51:05.060Z,23.5200
2022-11-12T00:51:16.254Z,23.5100
2022-11-12T00:51:27.455Z,23.5100
2022-11-12T00:51:38.593Z,23.5000
2022-11-12T00:51:49.694Z,23.5100
2022-11-12T00:52:00.736Z,23.5100
2022-11-12T00:52:11.933Z,23.5100
2022-11-12T00:52:22.988Z,23.5000
2022-11-12T00:52:34.023Z,23.5000
2022-11-12T00:52:45.213Z,23.5000
2022-11-12T00:52:56.420Z,23.5100
2022-11-12T00:53:07.629Z,23.5000
2022-11-12T00:53:18.814Z,23.4900
2022-11-12T00:53:30.033Z,23.4900
2022-11-12T00:53:41.213Z,23.4800
2022-11-12T00:53:52.414Z,23.4800
2022-11-12T00:54:03.464Z,23.4900
2022-11-12T00:54:14.522Z,23.4900
2022-11-12T00:54:25.560Z,23.4900
2022-11-12T00:54:36.630Z,23.4900
2022-11-12T00:54:47.775Z,23.5000
2022-11-12T00:54:58.974Z,23.5000
2022-11-12T00:55:10.015Z,23.5100
2022-11-12T00:55:21.072Z,23.5100
2022-11-12T00:55:32.254Z,23.5100
2022-11-12T00:55:43.455Z,23.5200
2022-11-12T00:55:54.663Z,23.5200
2022-11-12T00:56:05.855Z,23.5300
2022-11-12T00:56:17.054Z,23.5300
2022-11-12T00:56:33.005Z,23.5300
2022-11-12T00:56:45.215Z,23.5300
2022-11-12T00:56:56.454Z,23.5100
2022-11-12T00:57:07.615Z,23.5000
2022-11-12T00:57:18.813Z,23.5100
2022-11-12T00:57:29.854Z,23.5100
2022-11-12T00:57:40.893Z,23.5100
2022-11-12T00:57:52.096Z,23.5100
2022-11-12T00:58:03.294Z,23.5200
2022-11-12T00:58:14.343Z,23.5200
2022-11-12T00:58:25.653Z,23.5200
2022-11-12T00:58:36.932Z,23.5300
2022-11-12T00:58:48.094Z,23.5300
2022-11-12T00:58:59.293Z,23.5300
2022-11-12T00:59:10.494Z,23.5400
2022-11-12T00:59:21.694Z,23.5400
2022-11-12T00:59:32.741Z,23.5300
2022-11-12T00:59:43.788Z,23.5300
2022-11-12T00:59:54.974Z,23.5300
2022-11-12T01:00:06.185Z,23.5400
2022-11-12T01:00:17.247Z,23.5400
2022-11-12T01:00:28.313Z,23.5400
2022-11-12T01:00:39.516Z,23.5400
2022-11-12T01:00:50.722Z,23.5300
2022-11-12T01:01:01.917Z,23.5200
2022-11-12T01:01:13.112Z,23.5100
2022-11-12T01:01:24.319Z,23.5200
2022-11-12T01:01:35.454Z,23.5200
2022-11-12T01:01:46.654Z,23.5300
2022-11-12T01:01:57.884Z,23.5300
2022-11-12T01:02:09.055Z,23.5300
2022-11-12T01:02:20.102Z,23.5400
2022-11-12T01:02:31.143Z,23.5500
2022-11-12T01:02:46.368Z,23.5600
2022-11-12T01:02:59.295Z,23.5600
2022-11-12T01:03:10.494Z,23.5400
2022-11-12T01:03:21.788Z,23.5500
2022-11-12T01:03:32.959Z,23.5600
2022-11-12T01:03:44.163Z,23.5600
2022-11-12T01:03:55.347Z,23.5600
2022-11-12T01:04:06.573Z,23.5600
2022-11-12T01:04:17.696Z,23.5600
2022-11-12T01:04:28.904Z,23.5600
2022-11-12T01:04:40.103Z,23.5600
2022-11-12T01:04:51.294Z,23.5700
2022-11-12T01:05:02.495Z,23.5800
2022-11-12T01:05:13.697Z,23.5800
2022-11-12T01:05:25.254Z,23.5800
2022-11-12T01:05:36.414Z,23.5800
2022-11-12T01:05:47.613Z,23.5800
2022-11-12T01:05:58.654Z,23.5800
2022-11-12T01:06:09.695Z,23.5800
2022-11-12T01:06:20.896Z,23.5800
2022-11-12T01:06:32.093Z,23.5800
2022-11-12T01:06:43.394Z,23.5700
2022-11-12T01:06:54.552Z,23.5700
2022-11-12T01:07:05.780Z,23.5700
2022-11-12T01:07:16.952Z,23.5700
2022-11-12T01:07:28.094Z,23.5700
2022-11-12T01:07:39.293Z,23.5700
2022-11-12T01:07:55.811Z,23.5700
2022-11-12T01:08:07.460Z,23.5700
2022-11-12T01:08:18.656Z,23.5500
2022-11-12T01:08:30.201Z,23.5600
2022-11-12T01:08:41.735Z,23.5700
2022-11-12T01:08:52.905Z,23.5700
2022-11-12T01:09:04.094Z,23.5800
2022-11-12T01:09:15.134Z,23.5900
2022-11-12T01:09:26.174Z,23.5900
2022-11-12T01:09:37.406Z,23.5900
2022-11-12T01:09:48.475Z,23.5900
2022-11-12T01:09:59.540Z,23.5900
2022-11-12T01:10:10.653Z,23.5800
2022-11-12T01:10:21.693Z,23.5700
2022-11-12T01:10:32.732Z,23.5600
2022-11-12T01:10:43.936Z,23.5500
2022-11-12T01:10:55.139Z,23.5400
2022-11-12T01:11:06.333Z,23.5300
2022-11-12T01:11:17.535Z,23.5200
2022-11-12T01:11:28.739Z,23.5200
2022-11-12T01:11:39.934Z,23.5200
2022-11-12T01:11:51.133Z,23.5100
2022-11-12T01:12:02.341Z,23.5100
2022-11-12T01:12:13.553Z,23.5100
2022-11-12T01:12:24.615Z,23.5100
2022-11-12T01:12:35.662Z,23.5100
2022-11-12T01:12:46.817Z,23.5200
2022-11-12T01:12:58.013Z,23.5300
2022-11-12T01:13:09.062Z,23.5300
2022-11-12T01:13:20.104Z,23.5300
2022-11-12T01:13:31.143Z,23.5400
2022-11-12T01:13:44.338Z,23.5300
2022-11-12T01:13:55.654Z,23.5300
2022-11-12T01:14:06.814Z,23.5100
2022-11-12T01:14:18.015Z,23.5100
2022-11-12T01:14:29.222Z,23.5100
2022-11-12T01:14:40.417Z,23.5200
2022-11-12T01:14:51.614Z,23.5200
2022-11-12T01:15:02.815Z,23.5200
2022-11-12T01:15:14.013Z,23.5100
2022-11-12T01:15:25.213Z,23.5000
2022-11-12T01:15:36.417Z,23.4900
2022-11-12T01:15:47.623Z,23.4800
2022-11-12T01:15:58.825Z,23.4800
2022-11-12T01:16:09.885Z,23.4900
2022-11-12T01:16:20.955Z,23.4900
2022-11-12T01:16:32.094Z,23.5000
2022-11-12T01:16:43.299Z,23.5100
2022-11-12T01:16:54.496Z,23.5100
2022-11-12T01:17:05.693Z,23.5100
2022-11-12T01:17:16.922Z,23.5100
2022-11-12T01:17:28.094Z,23.5100
2022-11-12T01:17:39.294Z,23.5100
2022-11-12T01:17:50.494Z,23.5000
2022-11-12T01:18:01.695Z,23.5000
2022-11-12T01:18:12.735Z,23.5000
2022-11-12T01:18:24.311Z,23.5000
2022-11-12T01:18:35.974Z,23.5100
2022-11-12T01:18:47.135Z,23.5000
2022-11-12T01:18:58.475Z,23.5100
2022-11-12T01:19:09.484Z,23.5200
2022-11-12T01:19:20.562Z,23.5200
2022-11-12T01:19:31.614Z,23.5300
2022-11-12T01:19:42.814Z,23.5200
2022-11-12T01:19:54.037Z,23.5200
2022-11-12T01:20:05.105Z,23.5100
2022-11-12T01:20:16.154Z,23.4900
2022-11-12T01:20:27.294Z,23.4900
2022-11-12T01:20:38.347Z,23.4800
2022-11-12T01:20:49.410Z,23.4700
2022-11-12T01:21:00.584Z,23.4600
2022-11-12T01:21:11.780Z,23.4500
2022-11-12T01:21:22.974Z,23.4500
2022-11-12T01:21:34.175Z,23.4500
2022-11-12T01:21:45.383Z,23.4600
2022-11-12T01:21:56.586Z,23.4600
2022-11-12T01:22:07.785Z,23.4700
2022-11-12T01:22:18.863Z,23.4800
2022-11-12T01:22:29.974Z,23.4800
2022-11-12T01:22:41.055Z,23.4800
2022-11-12T01:22:52.257Z,23.4700
2022-11-12T01:23:03.455Z,23.4700
2022-11-12T01:23:14.662Z,23.4700
2022-11-12T01:23:25.854Z,23.4700
2022-11-12T01:23:37.055Z,23.4700
2022-11-12T01:23:48.253Z,23.4700
2022-11-12T01:23:59.454Z,23.4600
2022-11-12T01:24:10.654Z,23.4600
2022-11-12T01:24:21.694Z,23.4600
2022-11-12T01:24:32.745Z,23.4600
2022-11-12T01:24:43.935Z,23.4600
2022-11-12T01:24:55.134Z,23.4600
2022-11-12T01:25:06.336Z,23.4600
2022-11-12T01:25:17.535Z,23.4700
2022-11-12T01:25:28.735Z,23.4700
2022-11-12T01:25:39.845Z,23.4700
2022-11-12T01:25:50.905Z,23.4700
2022-11-12T01:26:02.014Z,23.4800
2022-11-12T01:26:13.216Z,23.4800
2022-11-12T01:26:24.256Z,23.4800
2022-11-12T01:26:35.303Z,23.4900
2022-11-12T01:26:46.494Z,23.5000
2022-11-12T01:26:57.695Z,23.5100
2022-11-12T01:27:08.903Z,23.5100
2022-11-12T01:27:20.113Z,23.5100
2022-11-12T01:27:31.294Z,23.5100
2022-11-12T01:27:42.495Z,23.4900
2022-11-12T01:27:53.710Z,23.4900
2022-11-12T01:28:04.894Z,23.4700
2022-11-12T01:28:16.103Z,23.4700
2022-11-12T01:28:27.563Z,23.4500
2022-11-12T01:28:39.175Z,23.4400
2022-11-12T01:28:50.336Z,23.4400
2022-11-12T01:29:01.534Z,23.4500
2022-11-12T01:29:12.576Z,23.4600
2022-11-12T01:29:23.617Z,23.4600
2022-11-12T01:29:34.815Z,23.4700
2022-11-12T01:29:46.017Z,23.4800
2022-11-12T01:29:57.216Z,23.4900
2022-11-12T01:30:08.414Z,23.5000
2022-11-12T01:30:19.612Z,23.5100
2022-11-12T01:30:30.660Z,23.5100
2022-11-12T01:30:41.712Z,23.5100
2022-11-12T01:30:52.903Z,23.5100
2022-11-12T01:31:04.094Z,23.5000
2022-11-12T01:31:15.292Z,23.4900
2022-11-12T01:31:26.494Z,23.4800
2022-11-12T01:31:37.697Z,23.4700
2022-11-12T01:31:48.901Z,23.4500
2022-11-12T01:32:00.130Z,23.4400
2022-11-12T01:32:11.295Z,23.4400
2022-11-12T01:32:22.525Z,23.4300
2022-11-12T01:32:33.574Z,23.4300
2022-11-12T01:32:44.613Z,23.4300
2022-11-12T01:32:55.773Z,23.4300
2022-11-12T01:33:06.974Z,23.4300
2022-11-12T01:33:18.186Z,23.4400
2022-11-12T01:33:29.374Z,23.4400
2022-11-12T01:33:40.574Z,23.4400
2022-11-12T01:33:51.774Z,23.4400
2022-11-12T01:34:03.097Z,23.4500
2022-11-12T01:34:14.174Z,23.4500
2022-11-12T01:34:25.381Z,23.4600
2022-11-12T01:34:36.414Z,23.4800
2022-11-12T01:34:47.454Z,23.4900
2022-11-12T01:34:58.671Z,23.5000
2022-11-12T01:35:09.854Z,23.5000
2022-11-12T01:35:20.894Z,23.5000
2022-11-12T01:35:31.941Z,23.5000
2022-11-12T01:35:42.973Z,23.5000
2022-11-12T01:35:54.029Z,23.4900
2022-11-12T01:36:05.214Z,23.4900
2022-11-12T01:36:16.414Z,23.4800
2022-11-12T01:36:27.615Z,23.4800
2022-11-12T01:36:38.814Z,23.4700
2022-11-12T01:36:50.015Z,23.4700
2022-11-12T01:37:01.213Z,23.4700
2022-11-12T01:37:12.415Z,23.4800
2022-11-12T01:37:23.663Z,23.4800
2022-11-12T01:37:34.819Z,23.4800
2022-11-12T01:37:45.856Z,23.4800
2022-11-12T01:37:56.961Z,23.4700
2022-11-12T01:38:08.097Z,23.4700
2022-11-12T01:38:19.163Z,23.4600
2022-11-12T01:38:30.225Z,23.4600
2022-11-12T01:38:41.264Z,23.4600
2022-11-12T01:38:52.314Z,23.4600
2022-11-12T01:39:03.454Z,23.4600
2022-11-12T01:39:14.655Z,23.4600
2022-11-12T01:39:25.854Z,23.4700
2022-11-12T01:39:37.054Z,23.4600
2022-11-12T01:39:48.267Z,23.4700
2022-11-12T01:39:59.514Z,23.4700
2022-11-12T01:40:10.654Z,23.4700
2022-11-12T01:40:21.854Z,23.4800
2022-11-12T01:40:33.054Z,23.4800
2022-11-12T01:40:44.166Z,23.4800
2022-11-12T01:40:55.213Z,23.4800
2022-11-12T01:41:06.335Z,23.4800
2022-11-12T01:41:17.537Z,23.4900
2022-11-12T01:41:28.734Z,23.4900
2022-11-12T01:41:39.933Z,23.5000
2022-11-12T01:41:51.139Z,23.4900
2022-11-12T01:42:02.174Z,23.4900
2022-11-12T01:42:13.214Z,23.4800
2022-11-12T01:42:24.433Z,23.4700
2022-11-12T01:42:35.613Z,23.4600
2022-11-12T01:42:46.813Z,23.4600
2022-11-12T01:42:58.026Z,23.4500
2022-11-12T01:43:09.252Z,23.4500
2022-11-12T01:43:20.416Z,23.4500
2022-11-12T01:43:31.622Z,23.4500
2022-11-12T01:43:42.822Z,23.4600
2022-11-12T01:43:54.014Z,23.4700
2022-11-12T01:44:05.214Z,23.4700
2022-11-12T01:44:16.421Z,23.4700
2022-11-12T01:44:27.622Z,23.4800
2022-11-12T01:44:38.814Z,23.4800
2022-11-12T01:44:50.014Z,23.4800
2022-11-12T01:45:01.093Z,23.4800
2022-11-12T01:45:12.176Z,23.4900
2022-11-12T01:45:23.294Z,23.4900
2022-11-12T01:45:34.495Z,23.4900
2022-11-12T01:45:45.773Z,23.4800
2022-11-12T01:45:56.894Z,23.4800
2022-11-12T01:46:08.096Z,23.4800
2022-11-12T01:46:19.293Z,23.4700
2022-11-12T01:46:30.502Z,23.4600
2022-11-12T01:46:41.695Z,23.4500
2022-11-12T01:46:52.886Z,23.4500
2022-11-12T01:47:03.933Z,23.4500
2022-11-12T01:47:14.982Z,23.4400
2022-11-12T01:47:26.210Z,23.4400
2022-11-12T01:47:37.375Z,23.4400
2022-11-12T01:47:48.573Z,23.4400
2022-11-12T01:47:59.774Z,23.4400
2022-11-12T01:48:10.974Z,23.4500
2022-11-12T01:48:22.185Z,23.4600
2022-11-12T01:48:33.382Z,23.4600
2022-11-12T01:48:44.574Z,23.4600
2022-11-12T01:48:55.714Z,23.4600
2022-11-12T01:49:06.891Z,23.4600
2022-11-12T01:49:17.912Z,23.4500
2022-11-12T01:49:29.054Z,23.4400
2022-11-12T01:49:40.274Z,23.4300
2022-11-12T01:49:55.086Z,23.4200
2022-11-12T01:50:09.124Z,23.4100
2022-11-12T01:50:20.295Z,23.4000
2022-11-12T01:50:31.465Z,23.4000
2022-11-12T01:50:42.506Z,23.4200
2022-11-12T01:50:53.543Z,23.4300
2022-11-12T01:51:04.584Z,23.4400
2022-11-12T01:51:15.616Z,23.4400
2022-11-12T01:51:26.814Z,23.4500
2022-11-12T01:51:38.022Z,23.4600
2022-11-12T01:51:49.224Z,23.4700
2022-11-12T01:52:00.414Z,23.4700
2022-11-12T01:52:11.614Z,23.4800
2022-11-12T01:52:22.814Z,23.4900
2022-11-12T01:52:34.045Z,23.5000
2022-11-12T01:52:45.223Z,23.5100
2022-11-12T01:52:56.414Z,23.5200
2022-11-12T01:53:07.455Z,23.5300
2022-11-12T01:53:18.493Z,23.5400
2022-11-12T01:53:29.695Z,23.5400
2022-11-12T01:53:40.897Z,23.5500
2022-11-12T01:53:52.093Z,23.5500
2022-11-12T01:54:03.294Z,23.5500
2022-11-12T01:54:14.503Z,23.5400
2022-11-12T01:54:25.696Z,23.5300
2022-11-12T01:54:36.895Z,23.5200
2022-11-12T01:54:48.092Z,23.5200
2022-11-12T01:54:59.294Z,23.5100
2022-11-12T01:55:10.344Z,23.5000
2022-11-12T01:55:21.384Z,23.5000
2022-11-12T01:55:32.573Z,23.4900
2022-11-12T01:55:43.775Z,23.4900
2022-11-12T01:55:54.982Z,23.4800
2022-11-12T01:56:06.173Z,23.4700
2022-11-12T01:56:17.373Z,23.4700
2022-11-12T01:56:28.572Z,23.4600
2022-11-12T01:56:42.477Z,23.4600
2022-11-12T01:56:53.895Z,23.4500
2022-11-12T01:57:05.054Z,23.4400
2022-11-12T01:57:16.260Z,23.4500
2022-11-12T01:57:31.975Z,23.4600
2022-11-12T01:57:44.541Z,23.4600
2022-11-12T01:57:55.622Z,23.4300
2022-11-12T01:58:06.814Z,23.4300
2022-11-12T01:58:18.014Z,23.4300
2022-11-12T01:58:29.352Z,23.4400
2022-11-12T01:58:40.414Z,23.4500
2022-11-12T01:58:51.614Z,23.4500
2022-11-12T01:59:02.815Z,23.4600
2022-11-12T01:59:14.015Z,23.4700
2022-11-12T01:59:25.073Z,23.4700
2022-11-12T01:59:36.138Z,23.4700
2022-11-12T01:59:47.294Z,23.4700
2022-11-12T01:59:58.493Z,23.4600
2022-11-12T02:00:09.694Z,23.4500
2022-11-12T02:00:20.904Z,23.4400
2022-11-12T02:00:32.095Z,23.4300
2022-11-12T02:00:43.335Z,23.4200
2022-11-12T02:00:54.539Z,23.4200
2022-11-12T02:01:05.758Z,23.4200
2022-11-12T02:01:16.947Z,23.4200
2022-11-12T02:01:28.036Z,23.4200
2022-11-12T02:01:39.083Z,23.4200
2022-11-12T02:01:50.141Z,23.4200
2022-11-12T02:02:01.374Z,23.4200
2022-11-12T02:02:12.574Z,23.4200
2022-11-12T02:02:23.773Z,23.4100
2022-11-12T02:02:34.974Z,23.4100
2022-11-12T02:02:46.202Z,23.4100
2022-11-12T02:02:57.373Z,23.4000
2022-11-12T02:03:08.573Z,23.4000
2022-11-12T02:03:19.781Z,23.4000
2022-11-12T02:03:30.953Z,23.4000
2022-11-12T02:03:42.183Z,23.4100
2022-11-12T02:03:53.227Z,23.4100
2022-11-12T02:04:04.268Z,23.4100
2022-11-12T02:04:15.569Z,23.4100
2022-11-12T02:04:26.654Z,23.4100
2022-11-12T02:04:37.861Z,23.4100
2022-11-12T02:04:49.053Z,23.4100
2022-11-12T02:05:00.254Z,23.4200
2022-11-12T02:05:11.454Z,23.4300
2022-11-12T02:05:22.653Z,23.4300
2022-11-12T02:05:33.721Z,23.4300
2022-11-12T02:05:44.794Z,23.4300
2022-11-12T02:05:55.934Z,23.4400
2022-11-12T02:06:07.133Z,23.4400
2022-11-12T02:06:18.183Z,23.4500
2022-11-12T02:06:29.233Z,23.4500
2022-11-12T02:06:40.448Z,23.4600
2022-11-12T02:06:51.632Z,23.4600
2022-11-12T02:07:02.731Z,23.4600
2022-11-12T02:07:13.881Z,23.4600
2022-11-12T02:07:24.905Z,23.4600
2022-11-12T02:07:36.093Z,23.4700
2022-11-12T02:07:47.313Z,23.4700
2022-11-12T02:07:58.494Z,23.4600
2022-11-12T02:08:09.698Z,23.4600
2022-11-12T02:08:20.893Z,23.4500
2022-11-12T02:08:32.095Z,23.4300
2022-11-12T02:08:43.293Z,23.4200
2022-11-12T02:08:54.355Z,23.4100
2022-11-12T02:09:05.384Z,23.4000
2022-11-12T02:09:16.574Z,23.4000
2022-11-12T02:09:27.773Z,23.3900
2022-11-12T02:09:38.982Z,23.3900
2022-11-12T02:09:50.175Z,23.3900
2022-11-12T02:10:01.388Z,23.4000
2022-11-12T02:10:12.430Z,23.4100
2022-11-12T02:10:23.503Z,23.4100
2022-11-12T02:10:34.653Z,23.4200
2022-11-12T02:10:45.852Z,23.4400
2022-11-12T02:10:56.953Z,23.4400
2022-11-12T02:11:08.032Z,23.4500
2022-11-12T02:11:19.103Z,23.4400
2022-11-12T02:11:30.335Z,23.4400
2022-11-12T02:11:41.373Z,23.4300
2022-11-12T02:11:52.451Z,23.4200
2022-11-12T02:12:03.614Z,23.4100
2022-11-12T02:12:14.814Z,23.4100
2022-11-12T02:12:26.014Z,23.4000
2022-11-12T02:12:37.212Z,23.3900
2022-11-12T02:12:48.451Z,23.3900
2022-11-12T02:12:59.613Z,23.4000
2022-11-12T02:13:10.812Z,23.4100
2022-11-12T02:13:21.861Z,23.4200
2022-11-12T02:13:32.902Z,23.4200
2022-11-12T02:13:44.091Z,23.4300
2022-11-12T02:13:55.303Z,23.4400
2022-11-12T02:14:06.343Z,23.4400
2022-11-12T02:14:17.389Z,23.4400
2022-11-12T02:14:28.423Z,23.4400
2022-11-12T02:14:39.470Z,23.4300
2022-11-12T02:14:50.653Z,23.4300
2022-11-12T02:15:01.867Z,23.4300
2022-11-12T02:15:13.053Z,23.4300
2022-11-12T02:15:24.254Z,23.4300
2022-11-12T02:15:35.292Z,23.4300
2022-11-12T02:15:46.341Z,23.4300